createdAt,value
2022-11-05T00:00:05.226Z,10.56
2022-11-05T00:02:55.867Z,10.51
2022-11-05T00:05:46.717Z,10.49
2022-11-05T00:08:37.026Z,10.51
2022-11-05T00:11:17.687Z,10.52
2022-11-05T00:14:08.857Z,10.55
2022-11-05T00:16:43.953Z,10.57
2022-11-05T00:19:16.728Z,10.57
2022-11-05T00:22:07.290Z,10.55
2022-11-05T00:24:57.755Z,10.53
2022-11-05T00:27:32.993Z,10.53
2022-11-05T00:30:05.821Z,10.52
2022-11-05T00:32:38.160Z,10.54
2022-11-05T00:35:10.140Z,10.55
2022-11-05T00:37:47.134Z,10.57
2022-11-05T00:40:21.640Z,10.60
2022-11-05T00:43:12.334Z,10.59
2022-11-05T00:45:44.464Z,10.61
2022-11-05T00:48:35.511Z,10.63
2022-11-05T00:51:08.098Z,10.65
2022-11-05T00:53:40.044Z,10.67
2022-11-05T00:56:11.919Z,10.67
2022-11-05T00:58:43.727Z,10.69
2022-11-05T01:01:15.842Z,10.70
2022-11-05T01:03:51.624Z,10.69
2022-11-05T01:06:24.028Z,10.65
2022-11-05T01:08:55.948Z,10.64
2022-11-05T01:11:33.824Z,10.60
2022-11-05T01:14:08.510Z,10.58
2022-11-05T01:16:40.744Z,10.56
2022-11-05T01:19:12.719Z,10.55
2022-11-05T01:21:44.642Z,10.51
2022-11-05T01:24:16.510Z,10.51
2022-11-05T01:26:48.400Z,10.50
2022-11-05T01:29:20.381Z,10.52
2022-11-05T01:31:52.213Z,10.53
2022-11-05T01:34:24.021Z,10.53
2022-11-05T01:36:55.839Z,10.54
2022-11-05T01:39:27.687Z,10.54
2022-11-05T01:41:59.531Z,10.52
2022-11-05T01:44:52.797Z,10.49
2022-11-05T01:47:30.212Z,10.47
2022-11-05T01:50:06.215Z,10.46
2022-11-05T01:52:38.017Z,10.42
2022-11-05T01:55:10.581Z,10.39
2022-11-05T01:57:42.712Z,10.36
2022-11-05T02:00:15.911Z,10.35
2022-11-05T02:02:48.098Z,10.33
2022-11-05T02:05:20.092Z,10.31
2022-11-05T02:07:52.300Z,10.28
2022-11-05T02:10:24.425Z,10.26
2022-11-05T02:12:56.393Z,10.23
2022-11-05T02:15:48.143Z,10.19
2022-11-05T02:18:44.487Z,10.19
2022-11-05T02:21:37.239Z,10.19
2022-11-05T02:24:33.499Z,10.19
2022-11-05T02:27:11.767Z,10.15
2022-11-05T02:30:08.578Z,10.11
2022-11-05T02:32:47.206Z,10.08
2022-11-05T02:35:27.000Z,10.10
2022-11-05T02:38:17.123Z,10.08
2022-11-05T02:41:25.706Z,10.07
2022-11-05T02:44:07.844Z,10.04
2022-11-05T02:46:55.614Z,10.03
2022-11-05T02:49:36.558Z,10.00
2022-11-05T02:52:20.358Z,9.99
2022-11-05T02:54:54.258Z,9.99
2022-11-05T02:57:29.192Z,9.97
2022-11-05T03:00:06.284Z,9.96
2022-11-05T03:02:38.390Z,9.94
2022-11-05T03:05:10.774Z,9.93
2022-11-05T03:07:48.591Z,9.96
2022-11-05T03:10:26.348Z,9.96
2022-11-05T03:13:15.452Z,9.94
2022-11-05T03:15:59.117Z,9.90
2022-11-05T03:18:33.707Z,9.89
2022-11-05T03:21:09.455Z,9.86
2022-11-05T03:23:56.194Z,9.86
2022-11-05T03:26:40.313Z,9.86
2022-11-05T03:29:18.142Z,9.88
2022-11-05T03:31:52.276Z,9.87
2022-11-05T03:34:30.502Z,9.85
2022-11-05T03:37:04.105Z,9.81
2022-11-05T03:39:47.713Z,9.81
2022-11-05T03:42:25.711Z,9.80
2022-11-05T03:45:00.040Z,9.78
2022-11-05T03:47:35.446Z,9.76
2022-11-05T03:50:15.558Z,9.73
2022-11-05T03:53:17.159Z,9.73
2022-11-05T03:55:59.973Z,9.71
2022-11-05T03:58:32.074Z,9.70
2022-11-05T04:01:04.153Z,9.69
2022-11-05T04:03:36.652Z,9.69
2022-11-05T04:06:28.966Z,9.66
2022-11-05T04:09:19.319Z,9.67
2022-11-05T04:12:10.421Z,9.66
2022-11-05T04:14:42.366Z,9.66
2022-11-05T04:17:14.340Z,9.64
2022-11-05T04:20:04.938Z,9.61
2022-11-05T04:22:55.281Z,9.57
2022-11-05T04:25:27.181Z,9.56
2022-11-05T04:28:02.916Z,9.56
2022-11-05T04:30:34.747Z,9.53
2022-11-05T04:33:11.988Z,9.51
2022-11-05T04:35:46.955Z,9.53
2022-11-05T04:38:19.895Z,9.52
2022-11-05T04:40:51.771Z,9.49
2022-11-05T04:43:24.021Z,9.46
2022-11-05T04:45:56.066Z,9.47
2022-11-05T04:48:27.869Z,9.48
2022-11-05T04:50:59.612Z,9.48
2022-11-05T04:53:31.621Z,9.46
2022-11-05T04:56:15.682Z,9.45
2022-11-05T04:58:47.845Z,9.45
2022-11-05T05:01:22.305Z,9.39
2022-11-05T05:03:55.009Z,9.38
2022-11-05T05:06:26.923Z,9.38
2022-11-05T05:08:58.984Z,9.36
2022-11-05T05:11:30.907Z,9.36
2022-11-05T05:14:02.824Z,9.34
2022-11-05T05:16:34.699Z,9.33
2022-11-05T05:19:06.625Z,9.37
2022-11-05T05:21:38.780Z,9.42
2022-11-05T05:24:13.878Z,9.45
2022-11-05T05:26:48.462Z,9.47
2022-11-05T05:29:20.302Z,9.47
2022-11-05T05:31:52.137Z,9.47
2022-11-05T05:34:23.940Z,9.45
2022-11-05T05:36:55.692Z,9.41
2022-11-05T05:39:27.650Z,9.38
2022-11-05T05:41:59.445Z,9.36
2022-11-05T05:44:31.365Z,9.35
2022-11-05T05:47:03.298Z,9.32
2022-11-05T05:49:35.253Z,9.31
2022-11-05T05:52:07.155Z,9.35
2022-11-05T05:54:42.719Z,9.39
2022-11-05T05:57:15.087Z,9.40
2022-11-05T05:59:47.297Z,9.37
2022-11-05T06:02:19.281Z,9.37
2022-11-05T06:04:51.165Z,9.36
2022-11-05T06:07:23.404Z,9.36
2022-11-05T06:09:55.314Z,9.32
2022-11-05T06:12:29.512Z,9.32
2022-11-05T06:15:01.482Z,9.26
2022-11-05T06:17:33.334Z,9.23
2022-11-05T06:20:05.769Z,9.22
2022-11-05T06:22:38.393Z,9.24
2022-11-05T06:25:10.517Z,9.24
2022-11-05T06:27:42.361Z,9.26
2022-11-05T06:30:14.417Z,9.22
2022-11-05T06:32:46.323Z,9.19
2022-11-05T06:35:18.137Z,9.20
2022-11-05T06:37:50.023Z,9.18
2022-11-05T06:40:21.754Z,9.17
2022-11-05T06:42:54.815Z,9.18
2022-11-05T06:45:26.726Z,9.20
2022-11-05T06:47:59.648Z,9.22
2022-11-05T06:50:31.436Z,9.21
2022-11-05T06:53:04.145Z,9.22
2022-11-05T06:55:36.291Z,9.22
2022-11-05T06:58:08.174Z,9.23
2022-11-05T07:00:40.194Z,9.23
2022-11-05T07:03:13.433Z,9.25
2022-11-05T07:05:48.018Z,9.26
2022-11-05T07:08:19.992Z,9.29
2022-11-05T07:10:51.814Z,9.30
2022-11-05T07:13:23.730Z,9.32
2022-11-05T07:15:58.302Z,9.35
2022-11-05T07:18:30.189Z,9.37
2022-11-05T07:21:02.112Z,9.38
2022-11-05T07:23:33.870Z,9.39
2022-11-05T07:26:05.725Z,9.39
2022-11-05T07:28:37.636Z,9.39
2022-11-05T07:31:09.433Z,9.37
2022-11-05T07:33:41.291Z,9.36
2022-11-05T07:36:14.766Z,9.37
2022-11-05T07:38:46.590Z,9.37
2022-11-05T07:41:18.819Z,9.36
2022-11-05T07:43:50.799Z,9.37
2022-11-05T07:46:22.690Z,9.38
2022-11-05T07:48:54.979Z,9.40
2022-11-05T07:51:26.953Z,9.43
2022-11-05T07:53:58.871Z,9.45
2022-11-05T07:56:30.700Z,9.49
2022-11-05T07:59:02.904Z,9.52
2022-11-05T08:01:34.805Z,9.56
2022-11-05T08:04:06.894Z,9.59
2022-11-05T08:06:38.926Z,9.65
2022-11-05T08:09:10.977Z,9.69
2022-11-05T08:11:42.899Z,9.70
2022-11-05T08:14:14.773Z,9.76
2022-11-05T08:16:46.626Z,9.80
2022-11-05T08:19:18.566Z,9.84
2022-11-05T08:21:50.504Z,9.90
2022-11-05T08:24:22.492Z,9.95
2022-11-05T08:26:54.352Z,10.04
2022-11-05T08:29:26.255Z,10.13
2022-11-05T08:31:58.227Z,10.16
2022-11-05T08:34:30.082Z,10.19
2022-11-05T08:37:02.311Z,10.21
2022-11-05T08:39:34.382Z,10.26
2022-11-05T08:42:06.139Z,10.30
2022-11-05T08:44:37.995Z,10.35
2022-11-05T08:47:09.941Z,10.40
2022-11-05T08:49:41.788Z,10.51
2022-11-05T08:52:13.727Z,10.58
2022-11-05T08:54:45.831Z,10.67
2022-11-05T08:57:17.751Z,10.72
2022-11-05T08:59:49.628Z,10.74
2022-11-05T09:02:21.597Z,10.74
2022-11-05T09:04:53.502Z,10.76
2022-11-05T09:07:25.546Z,10.84
2022-11-05T09:09:57.643Z,10.91
2022-11-05T09:12:29.486Z,10.91
2022-11-05T09:15:01.327Z,10.91
2022-11-05T09:17:33.372Z,10.88
2022-11-05T09:20:07.028Z,10.90
2022-11-05T09:22:43.221Z,10.87
2022-11-05T09:25:16.008Z,10.88
2022-11-05T09:27:48.025Z,10.90
2022-11-05T09:30:20.240Z,10.94
2022-11-05T09:32:52.231Z,10.92
2022-11-05T09:35:24.101Z,10.97
2022-11-05T09:38:00.809Z,11.01
2022-11-05T09:40:38.762Z,11.04
2022-11-05T09:43:19.154Z,11.05
2022-11-05T09:45:54.712Z,11.10
2022-11-05T09:48:29.506Z,11.09
2022-11-05T09:51:01.484Z,11.12
2022-11-05T09:53:36.971Z,11.16
2022-11-05T09:56:21.241Z,11.17
2022-11-05T09:59:01.495Z,11.20
2022-11-05T10:01:36.510Z,11.25
2022-11-05T10:04:20.571Z,11.30
2022-11-05T10:07:04.669Z,11.30
2022-11-05T10:09:46.367Z,11.31
2022-11-05T10:12:47.648Z,11.36
2022-11-05T10:15:23.797Z,11.36
2022-11-05T10:17:59.183Z,11.39
2022-11-05T10:20:36.550Z,11.44
2022-11-05T10:23:17.701Z,11.46
2022-11-05T10:25:55.975Z,11.50
2022-11-05T10:28:29.955Z,11.56
2022-11-05T10:31:07.369Z,11.62
2022-11-05T10:33:52.331Z,11.73
2022-11-05T10:36:29.770Z,11.86
2022-11-05T10:39:09.820Z,12.00
2022-11-05T10:41:54.148Z,12.15
2022-11-05T10:45:01.841Z,12.33
2022-11-05T10:47:52.998Z,12.42
2022-11-05T10:50:27.619Z,12.47
2022-11-05T10:53:15.658Z,12.47
2022-11-05T10:55:52.664Z,12.45
2022-11-05T10:58:29.987Z,12.46
2022-11-05T11:01:05.602Z,12.46
2022-11-05T11:03:39.290Z,12.50
2022-11-05T11:06:24.453Z,12.61
2022-11-05T11:08:58.878Z,12.67
2022-11-05T11:11:37.048Z,12.82
2022-11-05T11:14:11.827Z,13.10
2022-11-05T11:16:45.895Z,13.55
2022-11-05T11:19:20.662Z,14.16
2022-11-05T11:22:04.414Z,14.77
2022-11-05T11:24:46.929Z,15.44
2022-11-05T11:27:22.969Z,16.03
2022-11-05T11:30:05.429Z,16.09
2022-11-05T11:32:39.487Z,15.94
2022-11-05T11:35:22.786Z,15.99
2022-11-05T11:37:55.968Z,16.59
2022-11-05T11:40:33.533Z,17.26
2022-11-05T11:43:22.225Z,17.94
2022-11-05T11:45:57.344Z,18.55
2022-11-05T11:48:35.380Z,19.26
2022-11-05T11:51:19.384Z,19.80
2022-11-05T11:53:57.048Z,20.35
2022-11-05T11:56:30.367Z,20.78
2022-11-05T11:59:15.033Z,20.37
2022-11-05T12:01:55.908Z,20.53
2022-11-05T12:05:18.943Z,20.38
2022-11-05T12:07:54.226Z,19.69
2022-11-05T12:10:35.140Z,18.93
2022-11-05T12:13:19.231Z,18.23
2022-11-05T12:15:59.617Z,17.75
2022-11-05T12:18:38.315Z,17.12
2022-11-05T12:21:51.366Z,16.57
2022-11-05T12:25:00.928Z,16.27
2022-11-05T12:27:38.502Z,16.08
2022-11-05T12:30:19.424Z,15.84
2022-11-05T12:33:21.365Z,15.60
2022-11-05T12:36:02.614Z,15.43
2022-11-05T12:39:01.118Z,15.24
2022-11-05T12:41:57.523Z,15.09
2022-11-05T12:44:35.832Z,15.04
2022-11-05T12:47:26.213Z,15.01
2022-11-05T12:50:03.629Z,14.95
2022-11-05T12:52:45.668Z,14.85
2022-11-05T12:55:25.983Z,14.77
2022-11-05T12:58:10.290Z,14.75
2022-11-05T13:00:45.902Z,14.68
2022-11-05T13:03:23.714Z,14.67
2022-11-05T13:06:05.657Z,14.70
2022-11-05T13:08:48.638Z,14.70
2022-11-05T13:11:30.228Z,14.67
2022-11-05T13:14:42.436Z,14.68
2022-11-05T13:17:17.771Z,14.68
2022-11-05T13:19:54.422Z,14.67
2022-11-05T13:22:34.989Z,14.73
2022-11-05T13:25:28.243Z,14.70
2022-11-05T13:28:34.108Z,14.63
2022-11-05T13:31:10.854Z,14.48
2022-11-05T13:33:44.701Z,14.40
2022-11-05T13:36:56.518Z,14.28
2022-11-05T13:39:46.978Z,14.25
2022-11-05T13:42:37.148Z,14.20
2022-11-05T13:45:22.606Z,14.13
2022-11-05T13:47:59.082Z,14.06
2022-11-05T13:50:56.505Z,14.02
2022-11-05T13:54:03.441Z,14.03
2022-11-05T13:57:29.628Z,14.05
2022-11-05T14:00:21.671Z,14.05
2022-11-05T14:03:01.699Z,14.01
2022-11-05T14:05:36.403Z,14.01
2022-11-05T14:08:16.476Z,13.95
2022-11-05T14:11:05.861Z,13.88
2022-11-05T14:13:40.729Z,13.82
2022-11-05T14:16:21.130Z,13.85
2022-11-05T14:19:09.791Z,13.85
2022-11-05T14:21:48.568Z,13.84
2022-11-05T14:24:23.337Z,13.84
2022-11-05T14:27:01.288Z,13.79
2022-11-05T14:29:44.198Z,13.75
2022-11-05T14:32:21.723Z,13.76
2022-11-05T14:35:23.022Z,13.74
2022-11-05T14:37:56.287Z,13.77
2022-11-05T14:40:30.977Z,13.77
2022-11-05T14:43:15.571Z,13.73
2022-11-05T14:46:01.409Z,13.70
2022-11-05T14:48:40.324Z,13.63
2022-11-05T14:51:28.107Z,13.57
2022-11-05T14:54:07.023Z,13.54
2022-11-05T14:56:59.421Z,13.47
2022-11-05T14:59:51.629Z,13.46
2022-11-05T15:02:55.810Z,13.43
2022-11-05T15:05:51.951Z,13.40
2022-11-05T15:08:26.660Z,13.35
2022-11-05T15:11:13.075Z,13.31
2022-11-05T15:13:53.946Z,13.30
2022-11-05T15:16:30.826Z,13.28
2022-11-05T15:19:04.368Z,13.25
2022-11-05T15:21:37.169Z,13.24
2022-11-05T15:24:15.709Z,13.24
2022-11-05T15:27:04.890Z,13.23
2022-11-05T15:29:36.848Z,13.19
2022-11-05T15:32:19.477Z,13.19
2022-11-05T15:34:53.652Z,13.14
2022-11-05T15:37:26.869Z,13.11
2022-11-05T15:39:59.500Z,13.11
2022-11-05T15:42:31.631Z,13.08
2022-11-05T15:45:04.011Z,13.05
2022-11-05T15:47:36.263Z,13.05
2022-11-05T15:50:15.138Z,13.06
2022-11-05T15:52:53.858Z,13.10
2022-11-05T15:55:26.189Z,13.09
2022-11-05T15:58:06.835Z,13.09
2022-11-05T16:00:38.939Z,13.05
2022-11-05T16:03:27.942Z,12.99
2022-11-05T16:06:00.795Z,12.96
2022-11-05T16:08:33.482Z,12.91
2022-11-05T16:11:05.646Z,12.90
2022-11-05T16:13:40.172Z,12.87
2022-11-05T16:16:14.957Z,12.86
2022-11-05T16:18:47.085Z,12.88
2022-11-05T16:21:22.669Z,12.86
2022-11-05T16:23:59.554Z,12.82
2022-11-05T16:29:37.160Z,12.79
2022-11-05T16:32:18.750Z,12.80
2022-11-05T16:34:52.760Z,12.80
2022-11-05T16:37:25.752Z,12.76
2022-11-05T16:39:57.979Z,12.76
2022-11-05T16:42:32.640Z,12.77
2022-11-05T16:45:05.486Z,12.78
2022-11-05T16:47:37.801Z,12.76
2022-11-05T16:50:13.789Z,12.77
2022-11-05T16:52:46.370Z,12.75
2022-11-05T16:55:19.252Z,12.73
2022-11-05T16:57:54.781Z,12.70
2022-11-05T17:00:26.746Z,12.69
2022-11-05T17:02:59.022Z,12.70
2022-11-05T17:05:31.610Z,12.68
2022-11-05T17:08:04.049Z,12.65
2022-11-05T17:10:36.268Z,12.65
2022-11-05T17:13:10.323Z,12.63
2022-11-05T17:15:43.778Z,12.61
2022-11-05T17:18:18.848Z,12.61
2022-11-05T17:20:53.526Z,12.59
2022-11-05T17:23:26.796Z,12.60
2022-11-05T17:26:12.249Z,12.58
2022-11-05T17:28:44.319Z,12.52
2022-11-05T17:31:17.375Z,12.52
2022-11-05T17:33:49.208Z,12.50
2022-11-05T17:36:21.088Z,12.48
2022-11-05T17:38:53.515Z,12.45
2022-11-05T17:41:25.424Z,12.44
2022-11-05T17:43:57.567Z,12.44
2022-11-05T17:46:30.453Z,12.43
2022-11-05T17:49:02.334Z,12.41
2022-11-05T17:51:34.906Z,12.37
2022-11-05T17:54:07.554Z,12.35
2022-11-05T17:56:44.719Z,12.31
2022-11-05T17:59:17.236Z,12.31
2022-11-05T18:01:49.167Z,12.28
2022-11-05T18:04:21.070Z,12.28
2022-11-05T18:06:52.919Z,12.26
2022-11-05T18:09:24.871Z,12.26
2022-11-05T18:11:56.734Z,12.27
2022-11-05T18:14:28.626Z,12.27
2022-11-05T18:17:00.530Z,12.24
2022-11-05T18:19:32.507Z,12.23
2022-11-05T18:22:04.527Z,12.18
2022-11-05T18:24:36.472Z,12.18
2022-11-05T18:27:08.398Z,12.16
2022-11-05T18:29:40.915Z,12.16
2022-11-05T18:32:12.850Z,12.14
2022-11-05T18:34:44.925Z,12.12
2022-11-05T18:37:17.201Z,12.11
2022-11-05T18:39:52.640Z,12.11
2022-11-05T18:42:25.411Z,12.11
2022-11-05T18:44:57.426Z,12.12
2022-11-05T18:47:29.351Z,12.12
2022-11-05T18:50:01.637Z,12.12
2022-11-05T18:52:33.635Z,12.11
2022-11-05T18:55:06.107Z,12.11
2022-11-05T18:57:38.139Z,12.08
2022-11-05T19:00:10.942Z,12.10
2022-11-05T19:02:42.887Z,12.09
2022-11-05T19:05:28.649Z,12.09
2022-11-05T19:08:01.897Z,12.12
2022-11-05T19:10:33.664Z,12.15
2022-11-05T19:13:05.461Z,12.12
2022-11-05T19:15:37.424Z,12.12
2022-11-05T19:18:11.314Z,12.09
2022-11-05T19:20:43.674Z,12.09
2022-11-05T19:23:15.517Z,12.07
2022-11-05T19:25:47.443Z,12.08
2022-11-05T19:28:19.350Z,12.10
2022-11-05T19:30:51.287Z,12.11
2022-11-05T19:33:23.289Z,12.12
2022-11-05T19:35:55.658Z,12.08
2022-11-05T19:38:27.608Z,12.04
2022-11-05T19:41:10.438Z,12.03
2022-11-05T19:43:42.695Z,12.03
2022-11-05T19:46:17.519Z,12.04
2022-11-05T19:48:50.025Z,12.02
2022-11-05T19:51:26.629Z,12.02
2022-11-05T19:54:00.728Z,12.03
2022-11-05T19:56:34.438Z,12.02
2022-11-05T19:59:07.062Z,12.01
2022-11-05T20:01:39.019Z,12.04
2022-11-05T20:04:12.072Z,12.01
2022-11-05T20:06:43.996Z,12.01
2022-11-05T20:09:23.494Z,12.01
2022-11-05T20:11:56.634Z,12.01
2022-11-05T20:14:29.652Z,12.00
2022-11-05T20:17:01.546Z,12.02
2022-11-05T20:19:33.710Z,12.06
2022-11-05T20:22:05.548Z,12.07
2022-11-05T20:24:37.687Z,12.07
2022-11-05T20:27:09.595Z,12.07
2022-11-05T20:29:41.511Z,12.06
2022-11-05T20:32:14.238Z,12.07
2022-11-05T20:34:46.096Z,12.07
2022-11-05T20:37:18.224Z,12.05
2022-11-05T20:39:50.110Z,12.05
2022-11-05T20:42:21.972Z,12.02
2022-11-05T20:44:53.833Z,12.03
2022-11-05T20:47:25.688Z,12.01
2022-11-05T20:49:58.478Z,12.00
2022-11-05T20:52:30.426Z,11.98
2022-11-05T20:55:03.208Z,11.95
2022-11-05T20:57:37.184Z,11.95
2022-11-05T21:00:09.572Z,11.94
2022-11-05T21:02:41.910Z,11.94
2022-11-05T21:05:13.887Z,11.94
2022-11-05T21:07:45.716Z,11.90
2022-11-05T21:10:17.703Z,11.87
2022-11-05T21:12:49.698Z,11.88
2022-11-05T21:15:23.140Z,11.90
2022-11-05T21:17:54.945Z,11.88
2022-11-05T21:20:27.008Z,11.88
2022-11-05T21:22:58.880Z,11.91
2022-11-05T21:25:30.735Z,11.89
2022-11-05T21:28:02.610Z,11.91
2022-11-05T21:30:36.796Z,11.92
2022-11-05T21:33:08.997Z,11.90
2022-11-05T21:35:45.417Z,11.88
2022-11-05T21:38:17.571Z,11.88
2022-11-05T21:40:49.555Z,11.87
2022-11-05T21:43:21.459Z,11.89
2022-11-05T21:45:53.634Z,11.88
2022-11-05T21:48:25.691Z,11.87
2022-11-05T21:51:16.375Z,11.86
2022-11-05T21:54:06.811Z,11.86
2022-11-05T21:56:57.577Z,11.83
2022-11-05T21:59:48.294Z,11.81
2022-11-05T22:02:22.710Z,11.81
2022-11-05T22:04:57.222Z,11.79
2022-11-05T22:07:31.954Z,11.76
2022-11-05T22:10:09.665Z,11.78
2022-11-05T22:12:45.000Z,11.80
2022-11-05T22:15:16.932Z,11.75
2022-11-05T22:17:50.600Z,11.73
2022-11-05T22:20:22.399Z,11.71
2022-11-05T22:22:55.018Z,11.70
2022-11-05T22:25:26.762Z,11.69
2022-11-05T22:27:58.567Z,11.66
2022-11-05T22:30:34.569Z,11.66
2022-11-05T22:33:06.448Z,11.65
2022-11-05T22:35:39.316Z,11.64
2022-11-05T22:38:12.657Z,11.63
2022-11-05T22:40:44.833Z,11.63
2022-11-05T22:43:16.896Z,11.63
2022-11-05T22:45:48.803Z,11.61
2022-11-05T22:48:20.705Z,11.64
2022-11-05T22:50:52.625Z,11.66
2022-11-05T22:53:24.559Z,11.66
2022-11-05T22:55:56.452Z,11.65
2022-11-05T22:58:28.217Z,11.66
2022-11-05T23:01:01.006Z,11.66
2022-11-05T23:03:33.396Z,11.68
2022-11-05T23:06:35.001Z,11.69
2022-11-05T23:09:42.087Z,11.69
2022-11-05T23:12:33.166Z,11.65
2022-11-05T23:15:07.153Z,11.63
2022-11-05T23:17:57.650Z,11.64
2022-11-05T23:20:48.133Z,11.63
2022-11-05T23:23:38.658Z,11.62
2022-11-05T23:26:29.417Z,11.61
2022-11-05T23:29:01.336Z,11.58
2022-11-05T23:31:51.625Z,11.58
2022-11-05T23:34:23.532Z,11.55
2022-11-05T23:37:13.705Z,11.55
2022-11-05T23:39:48.997Z,11.59
2022-11-05T23:42:39.756Z,11.61
2022-11-05T23:45:30.679Z,11.63
2022-11-05T23:48:19.180Z,11.64
2022-11-05T23:51:05.923Z,11.65
2022-11-05T23:53:40.108Z,11.66
2022-11-05T23:56:14.620Z,11.71
2022-11-05T23:58:46.582Z,11.73
